Time;durP1;ratioP1;P1;durP2;ratioP2;P2;SDS_P1;SDS_P2;PMS_P1;PMS_P2;Temp;Humidity;BMP_temperature;BMP_pressure;BME280_temperature;BME280_humidity;BME280_pressure;Samples;Min_cycle;Max_cycle;Signal;HPM_P1;HPM_P2
2022/04/14 00:00:06;;;;;;;;;;;;;;;8.52;100.00;95760.56;1030521;28;19918;-67
2022/04/14 00:00:36;;;;;;;;;;;;;;;8.51;100.00;95758.94;1031219;28;20378;-66
2022/04/14 00:01:07;;;;;;;;;;;;;;;8.53;100.00;95761.34;1030978;28;20489;-68
2022/04/14 00:01:37;;;;;;;;;;;;;;;8.52;100.00;95757.94;1027129;28;19924;-65
2022/04/14 00:02:07;;;;;;;;;;;;;;;8.52;100.00;95760.56;1031091;28;19985;-66
2022/04/14 00:02:37;;;;;;;;;;;;;;;8.50;100.00;95755.56;1031204;28;19917;-66
2022/04/14 00:03:08;;;;;;;;;;;;;;;8.48;100.00;95759.44;1030101;28;19917;-66
2022/04/14 00:03:40;;;;;;;;;;;;;;;8.43;100.00;95754.97;1024946;28;20395;-68
2022/04/14 00:04:10;;;;;;;;;;;;;;;8.42;100.00;95763.06;1027043;28;20462;-66
2022/04/14 00:04:40;;;;;;;;;;;;;;;8.39;100.00;95755.72;1027315;28;19925;-66
2022/04/14 00:05:11;;;;;;;;;;;;;;;8.38;100.00;95756.75;1030599;28;19918;-66
2022/04/14 00:05:41;;;;;;;;;;;;;;;8.35;100.00;95746.75;1030942;28;19918;-67
2022/04/14 00:06:11;;;;;;;;;;;;;;;8.33;100.00;95754.84;1031337;28;20530;-67
2022/04/14 00:06:42;;;;;;;;;;;;;;;8.33;100.00;95761.91;1029378;28;19918;-65
2022/04/14 00:07:12;;;;;;;;;;;;;;;8.31;100.00;95756.91;1025055;28;19925;-68
2022/04/14 00:07:44;;;;;;;;;;;;;;;8.30;100.00;95759.78;1027201;28;19918;-66
2022/04/14 00:08:14;;;;;;;;;;;;;;;8.29;100.00;95763.44;1027005;28;20962;-67
2022/04/14 00:08:46;;;;;;;;;;;;;;;8.27;100.00;95768.91;1027160;28;20018;-67
2022/04/14 00:09:16;;;;;;;;;;;;;;;8.25;100.00;95758.72;1026949;28;19977;-67
2022/04/14 00:09:47;;;;;;;;;;;;;;;8.25;100.00;95758.72;1022008;28;19918;-66
2022/04/14 00:10:17;;;;;;;;;;;;;;;8.25;100.00;95769.16;1022766;28;19914;-67
2022/04/14 00:10:48;;;;;;;;;;;;;;;8.27;100.00;95758.44;1023108;28;19973;-66
2022/04/14 00:11:18;;;;;;;;;;;;;;;8.31;100.00;95769.19;1027031;28;19921;-66
2022/04/14 00:11:49;;;;;;;;;;;;;;;8.33;100.00;95767.13;1022957;28;19926;-66
2022/04/14 00:12:19;;;;;;;;;;;;;;;8.34;100.00;95771.31;1022756;28;19918;-66
2022/04/14 00:12:49;;;;;;;;;;;;;;;8.32;100.00;95765.56;1023163;29;19957;-65
2022/04/14 00:13:20;;;;;;;;;;;;;;;8.33;100.00;95769.75;1023058;28;19914;-66
2022/04/14 00:13:50;;;;;;;;;;;;;;;8.31;100.00;95771.81;1026618;28;19930;-65
2022/04/14 00:14:21;;;;;;;;;;;;;;;8.29;100.00;95769.47;1027094;28;19941;-66
2022/04/14 00:14:51;;;;;;;;;;;;;;;8.27;100.00;95767.06;1022669;29;20442;-65
2022/04/14 00:15:21;;;;;;;;;;;;;;;8.30;100.00;95767.63;1023126;29;19919;-67
2022/04/14 00:15:52;;;;;;;;;;;;;;;8.34;100.00;95771.31;1022765;28;19919;-67
2022/04/14 00:16:22;;;;;;;;;;;;;;;8.30;100.00;95770.25;1023017;29;19973;-67
2022/04/14 00:16:55;;;;;;;;;;;;;;;8.28;100.00;95770.47;1018663;29;20317;-66
2022/04/14 00:17:26;;;;;;;;;;;;;;;8.30;100.00;95768.41;1025244;28;19914;-66
2022/04/14 00:17:56;;;;;;;;;;;;;;;8.30;100.00;95770.25;1026854;28;20737;-67
2022/04/14 00:18:30;;;;;;;;;;;;;;;8.26;100.00;95773.34;1027919;28;20404;-66
2022/04/14 00:19:00;;;;;;;;;;;;;;;8.25;100.00;95771.78;1026816;28;19926;-66
2022/04/14 00:19:31;;;;;;;;;;;;;;;8.29;100.00;95768.69;1026991;28;20423;-67
2022/04/14 00:20:01;;;;;;;;;;;;;;;8.25;100.00;95763.94;1022327;29;20527;-67
2022/04/14 00:20:32;;;;;;;;;;;;;;;8.24;100.00;95772.00;1015334;28;20270;-65
2022/04/14 00:21:02;;;;;;;;;;;;;;;8.22;100.00;95768.88;1019041;29;19923;-66
2022/04/14 00:21:32;;;;;;;;;;;;;;;8.18;100.00;95768.56;1023117;28;19918;-66
2022/04/14 00:22:03;;;;;;;;;;;;;;;8.16;100.00;95765.41;1026656;28;19922;-66
2022/04/14 00:22:36;;;;;;;;;;;;;;;8.16;100.00;95762.78;1028192;28;20438;-67
2022/04/14 00:23:06;;;;;;;;;;;;;;;8.12;100.00;95764.31;1030214;28;19965;-66
2022/04/14 00:23:36;;;;;;;;;;;;;;;8.12;100.00;95761.72;1022916;28;20352;-67
2022/04/14 00:24:07;;;;;;;;;;;;;;;8.14;100.00;95767.47;1022787;28;19999;-68
2022/04/14 00:24:37;;;;;;;;;;;;;;;8.14;100.00;95764.84;1015064;29;20005;-66
2022/04/14 00:25:07;;;;;;;;;;;;;;;8.15;100.00;95771.69;1011222;29;19923;-66
2022/04/14 00:25:38;;;;;;;;;;;;;;;8.13;100.00;95767.72;1018998;29;19923;-64
2022/04/14 00:26:11;;;;;;;;;;;;;;;8.12;100.00;95766.94;1022805;28;19918;-67
2022/04/14 00:26:44;;;;;;;;;;;;;;;8.11;100.00;95769.78;1022885;28;19914;-65
2022/04/14 00:27:16;;;;;;;;;;;;;;;8.16;100.00;95770.63;1026735;28;19925;-66
2022/04/14 00:27:47;;;;;;;;;;;;;;;8.15;100.00;95771.69;1020235;29;19918;-67
2022/04/14 00:28:17;;;;;;;;;;;;;;;8.16;100.00;95765.41;1019974;29;20626;-63
2022/04/14 00:28:48;;;;;;;;;;;;;;;8.16;100.00;95772.47;1019012;29;19942;-68
2022/04/14 00:29:18;;;;;;;;;;;;;;;8.10;100.00;95776.84;1017238;29;19923;-67
2022/04/14 00:29:48;;;;;;;;;;;;;;;8.06;100.00;95773.16;1022992;29;20388;-66
2022/04/14 00:30:19;;;;;;;;;;;;;;;8.04;100.00;95773.38;1022826;29;20028;-66
2022/04/14 00:30:49;;;;;;;;;;;;;;;8.03;100.00;95776.25;1023780;28;19958;-65
2022/04/14 00:31:19;;;;;;;;;;;;;;;8.00;100.00;95777.50;1030935;28;19932;-66
2022/04/14 00:31:50;;;;;;;;;;;;;;;8.01;100.00;95776.50;1022945;28;19914;-68
2022/04/14 00:32:20;;;;;;;;;;;;;;;8.01;100.00;95778.31;1019042;29;19974;-66
2022/04/14 00:32:50;;;;;;;;;;;;;;;8.04;100.00;95780.44;1022885;29;19923;-65
2022/04/14 00:33:21;;;;;;;;;;;;;;;8.06;100.00;95778.38;1023505;28;19922;-66
2022/04/14 00:33:51;;;;;;;;;;;;;;;8.09;100.00;95775.28;1031104;28;19939;-66
2022/04/14 00:34:25;;;;;;;;;;;;;;;8.06;100.00;95773.16;1028693;28;19918;-68
2022/04/14 00:34:55;;;;;;;;;;;;;;;8.06;100.00;95770.53;1027162;28;19929;-68
2022/04/14 00:35:25;;;;;;;;;;;;;;;8.10;100.00;95776.84;1026976;28;19929;-66
2022/04/14 00:35:56;;;;;;;;;;;;;;;8.12;100.00;95774.00;1026938;28;19928;-66
2022/04/14 00:36:26;;;;;;;;;;;;;;;8.07;100.00;95782.56;1027455;28;19922;-67
2022/04/14 00:36:56;;;;;;;;;;;;;;;8.08;100.00;95770.28;1026089;28;19922;-68
2022/04/14 00:37:26;;;;;;;;;;;;;;;8.04;100.00;95775.19;1023560;28;19923;-66
2022/04/14 00:37:57;;;;;;;;;;;;;;;8.03;100.00;95778.84;1026875;28;19949;-66
2022/04/14 00:38:27;;;;;;;;;;;;;;;8.02;100.00;95780.69;1026798;28;19924;-67
2022/04/14 00:38:57;;;;;;;;;;;;;;;8.02;100.00;95774.69;1027117;28;19918;-66
2022/04/14 00:39:28;;;;;;;;;;;;;;;7.82;100.00;95753.56;1026813;28;19972;-66
2022/04/14 00:39:58;;;;;;;;;;;;;;;7.96;100.00;95776.44;1026979;28;19964;-68
2022/04/14 00:40:28;;;;;;;;;;;;;;;7.92;100.00;95774.56;1026929;28;19949;-66
2022/04/14 00:40:59;;;;;;;;;;;;;;;7.88;100.00;95776.88;1018834;29;19925;-66
2022/04/14 00:41:32;;;;;;;;;;;;;;;7.86;100.00;95778.16;1023136;28;20614;-65
2022/04/14 00:42:11;;;;;;;;;;;;;;;7.87;100.00;95783.13;1027934;28;19922;-69
2022/04/14 00:42:41;;;;;;;;;;;;;;;7.86;100.00;95776.31;1033646;28;19976;-67
2022/04/14 00:43:12;;;;;;;;;;;;;;;7.85;100.00;95777.34;1033504;28;19948;-66
2022/04/14 00:43:43;;;;;;;;;;;;;;;7.82;100.00;95774.44;1033386;28;19917;-67
2022/04/14 00:44:13;;;;;;;;;;;;;;;7.78;100.00;95774.94;1025946;28;19922;-68
2022/04/14 00:44:43;;;;;;;;;;;;;;;7.76;100.00;95776.19;1022032;29;19922;-69
2022/04/14 00:45:14;;;;;;;;;;;;;;;7.73;100.00;95771.47;1022233;29;20017;-70
2022/04/14 00:45:44;;;;;;;;;;;;;;;7.71;100.00;95776.94;1021829;28;19923;-68
2022/04/14 00:46:15;;;;;;;;;;;;;;;7.68;100.00;95774.81;1029970;28;19922;-70
2022/04/14 00:46:45;;;;;;;;;;;;;;;7.66;100.00;95771.66;1028903;28;19925;-67
2022/04/14 00:47:15;;;;;;;;;;;;;;;7.64;100.00;95773.69;1028471;28;19919;-66
2022/04/14 00:47:46;;;;;;;;;;;;;;;7.61;100.00;95771.56;1027220;28;20577;-66
2022/04/14 00:48:16;;;;;;;;;;;;;;;7.59;100.00;95778.88;1027175;28;19927;-66
2022/04/14 00:48:46;;;;;;;;;;;;;;;7.57;100.00;95781.72;1031167;28;19925;-69
2022/04/14 00:49:17;;;;;;;;;;;;;;;7.56;100.00;95779.34;1030992;28;20360;-66
2022/04/14 00:49:47;;;;;;;;;;;;;;;7.53;100.00;95777.22;1031092;28;19922;-66
2022/04/14 00:50:17;;;;;;;;;;;;;;;7.53;100.00;95778.00;1030954;28;19917;-66
2022/04/14 00:50:48;;;;;;;;;;;;;;;7.51;100.00;95774.06;1031029;28;19957;-66
2022/04/14 00:51:18;;;;;;;;;;;;;;;7.50;100.00;95775.09;1030706;28;19918;-67
2022/04/14 00:51:48;;;;;;;;;;;;;;;7.48;100.00;95774.56;1022848;28;19919;-68
2022/04/14 00:52:25;;;;;;;;;;;;;;;7.46;100.00;95771.38;1023028;29;20617;-67
2022/04/14 00:52:55;;;;;;;;;;;;;;;7.46;100.00;95772.19;1022898;28;19953;-66
2022/04/14 00:53:25;;;;;;;;;;;;;;;7.45;100.00;95777.66;1018839;28;19914;-67
2022/04/14 00:53:56;;;;;;;;;;;;;;;7.43;100.00;95782.31;1026923;28;19926;-66
2022/04/14 00:54:26;;;;;;;;;;;;;;;7.41;100.00;95771.31;1028051;28;19922;-66
2022/04/14 00:54:56;;;;;;;;;;;;;;;7.40;100.00;95780.97;1023575;28;19928;-66
2022/04/14 00:55:27;;;;;;;;;;;;;;;7.41;100.00;95781.75;1026980;28;19921;-67
2022/04/14 00:55:57;;;;;;;;;;;;;;;7.39;100.00;95781.22;1018921;29;19926;-66
2022/04/14 00:56:28;;;;;;;;;;;;;;;7.38;100.00;95779.63;1016640;29;19942;-66
2022/04/14 00:56:58;;;;;;;;;;;;;;;7.37;100.00;95778.84;1022320;29;19923;-66
2022/04/14 00:57:28;;;;;;;;;;;;;;;7.35;100.00;95782.75;1022661;29;20376;-67
2022/04/14 00:57:59;;;;;;;;;;;;;;;7.33;100.00;95778.53;1027055;28;19906;-67
2022/04/14 00:58:32;;;;;;;;;;;;;;;7.32;100.00;95784.78;1022794;29;19911;-67
2022/04/14 00:59:02;;;;;;;;;;;;;;;7.31;100.00;95778.00;1023260;28;20360;-67
2022/04/14 00:59:33;;;;;;;;;;;;;;;7.33;100.00;95785.56;1027262;28;19916;-67
2022/04/14 01:00:04;;;;;;;;;;;;;;;7.32;100.00;95782.19;1026622;28;20277;-66
2022/04/14 01:00:35;;;;;;;;;;;;;;;7.30;100.00;95779.00;1022975;29;20387;-67
2022/04/14 01:01:05;;;;;;;;;;;;;;;7.30;100.00;95781.63;1018978;29;19961;-66
2022/04/14 01:01:36;;;;;;;;;;;;;;;7.29;100.00;95777.44;1014885;29;19915;-67
2022/04/14 01:02:06;;;;;;;;;;;;;;;7.27;100.00;95779.47;1015068;29;19985;-67
2022/04/14 01:02:36;;;;;;;;;;;;;;;7.29;100.00;95776.66;1018950;29;19911;-67
2022/04/14 01:03:07;;;;;;;;;;;;;;;7.25;100.00;95781.56;1022808;28;19923;-68
2022/04/14 01:03:37;;;;;;;;;;;;;;;7.25;100.00;95778.94;1022905;28;19914;-66
2022/04/14 01:04:08;;;;;;;;;;;;;;;7.25;100.00;95780.78;1026993;28;20331;-66
2022/04/14 01:04:39;;;;;;;;;;;;;;;7.24;100.00;95780.00;1026905;28;19996;-67
2022/04/14 01:05:09;;;;;;;;;;;;;;;7.22;100.00;95782.03;1026740;28;19917;-66
2022/04/14 01:05:39;;;;;;;;;;;;;;;7.23;100.00;95777.59;1022673;29;19947;-65
2022/04/14 01:06:10;;;;;;;;;;;;;;;7.21;100.00;95779.66;1022985;28;20526;-65
2022/04/14 01:06:40;;;;;;;;;;;;;;;7.20;100.00;95780.69;1026478;28;20392;-64
2022/04/14 01:07:10;;;;;;;;;;;;;;;7.18;100.00;95775.72;1030547;28;20020;-66
2022/04/14 01:07:44;;;;;;;;;;;;;;;7.17;100.00;95779.34;1026683;28;19989;-65
2022/04/14 01:08:17;;;;;;;;;;;;;;;7.16;100.00;95780.38;1023570;28;19917;-63
2022/04/14 01:09:16;;;;;;;;;;;;;;;7.15;100.00;95781.41;1025510;28;19922;-66
2022/04/14 01:09:39;;;;;;;;;;;;;;;7.13;100.00;95786.06;1025582;28;19945;-67
2022/04/14 01:10:09;;;;;;;;;;;;;;;7.16;100.00;95785.59;1022048;29;19918;-66
2022/04/14 01:10:40;;;;;;;;;;;;;;;7.14;100.00;95779.03;1025572;28;19918;-67
2022/04/14 01:11:11;;;;;;;;;;;;;;;7.15;100.00;95789.25;1021618;29;20344;-66
2022/04/14 01:11:41;;;;;;;;;;;;;;;7.18;100.00;95777.56;1019086;29;19919;-68
2022/04/14 01:12:12;;;;;;;;;;;;;;;7.13;100.00;95783.47;1016135;29;19919;-66
2022/04/14 01:12:42;;;;;;;;;;;;;;;7.16;100.00;95782.22;1015075;29;19954;-66
2022/04/14 01:13:15;;;;;;;;;;;;;;;7.19;100.00;95782.50;1019143;29;19919;-66
2022/04/14 01:13:46;;;;;;;;;;;;;;;7.19;100.00;95782.50;1019177;29;19918;-66
2022/04/14 01:14:25;;;;;;;;;;;;;;;7.23;100.00;95788.03;1023333;28;19953;-66
2022/04/14 01:14:55;;;;;;;;;;;;;;;7.21;100.00;95784.88;1028404;28;20299;-67
2022/04/14 01:15:25;;;;;;;;;;;;;;;7.20;100.00;95784.09;1027944;28;19930;-64
2022/04/14 01:15:56;;;;;;;;;;;;;;;7.19;100.00;95782.50;1022992;29;19918;-65
2022/04/14 01:16:26;;;;;;;;;;;;;;;7.19;100.00;95785.13;1022775;28;19922;-66
2022/04/14 01:16:59;;;;;;;;;;;;;;;7.13;100.00;95793.91;1022244;28;19923;-66
2022/04/14 01:17:29;;;;;;;;;;;;;;;7.13;100.00;95793.91;1026999;28;19926;-66
2022/04/14 01:17:59;;;;;;;;;;;;;;;7.11;100.00;95789.94;1031025;28;19917;-67
2022/04/14 01:18:30;;;;;;;;;;;;;;;7.11;100.00;95790.75;1026948;28;19918;-66
2022/04/14 01:19:00;;;;;;;;;;;;;;;7.13;100.00;95793.91;1026844;28;19976;-65
2022/04/14 01:19:30;;;;;;;;;;;;;;;7.13;100.00;95785.28;1022784;29;19918;-68
2022/04/14 01:20:04;;;;;;;;;;;;;;;7.12;100.00;95788.94;1023136;28;20610;-65
2022/04/14 01:20:34;;;;;;;;;;;;;;;7.08;100.00;95789.41;1027143;28;20020;-66
2022/04/14 01:21:05;;;;;;;;;;;;;;;7.07;100.00;95787.03;1023593;28;20640;-67
2022/04/14 01:21:35;;;;;;;;;;;;;;;7.11;100.00;95792.56;1026788;28;19926;-66
2022/04/14 01:22:08;;;;;;;;;;;;;;;7.08;100.00;95788.63;1022697;29;19981;-67
2022/04/14 01:22:58;;;;;;;;;;;;;;;7.04;100.00;95788.31;1022970;28;20393;-66
2022/04/14 01:23:41;;;;;;;;;;;;;;;7.05;100.00;95791.72;1030730;28;19952;-66
2022/04/14 01:24:11;;;;;;;;;;;;;;;7.03;100.00;95791.16;1030856;28;19933;-68
2022/04/14 01:24:42;;;;;;;;;;;;;;;7.05;100.00;95791.72;1026685;28;19996;-66
2022/04/14 01:25:12;;;;;;;;;;;;;;;7.04;100.00;95792.72;1019025;29;20273;-66
2022/04/14 01:25:42;;;;;;;;;;;;;;;7.00;100.00;95795.00;1018771;29;20452;-66
2022/04/14 01:26:16;;;;;;;;;;;;;;;7.00;100.00;95799.44;1022782;29;19918;-67
2022/04/14 01:26:46;;;;;;;;;;;;;;;7.00;100.00;95804.66;1022194;28;20555;-66
2022/04/14 01:27:17;;;;;;;;;;;;;;;7.00;100.00;95804.66;1027038;28;19926;-66
2022/04/14 01:27:50;;;;;;;;;;;;;;;6.98;100.00;95794.47;1018984;29;20647;-67
2022/04/14 01:28:20;;;;;;;;;;;;;;;6.96;100.00;95799.13;1022951;29;19977;-68
2022/04/14 01:28:50;;;;;;;;;;;;;;;6.95;100.00;95804.59;1018663;29;19915;-66
2022/04/14 01:29:22;;;;;;;;;;;;;;;6.98;100.00;95806.75;1019594;28;19923;-66
2022/04/14 01:29:52;;;;;;;;;;;;;;;7.00;100.00;95800.22;1026889;28;19926;-68
2022/04/14 01:30:22;;;;;;;;;;;;;;;7.03;100.00;95804.19;1022821;28;19922;-66
2022/04/14 01:30:56;;;;;;;;;;;;;;;7.04;100.00;95805.75;1023914;28;20305;-65
2022/04/14 01:31:26;;;;;;;;;;;;;;;7.03;100.00;95804.97;1026722;28;19922;-66
2022/04/14 01:31:56;;;;;;;;;;;;;;;7.08;100.00;95804.28;1026743;28;20386;-65
2022/04/14 01:32:27;;;;;;;;;;;;;;;7.16;100.00;95808.31;1027160;28;19922;-66
2022/04/14 01:32:57;;;;;;;;;;;;;;;7.21;100.00;95808.34;1026650;28;19921;-66
2022/04/14 01:33:28;;;;;;;;;;;;;;;7.21;100.00;95814.38;1026921;28;19957;-65
2022/04/14 01:33:58;;;;;;;;;;;;;;;7.23;100.00;95811.53;1022704;29;20066;-66
2022/04/14 01:34:31;;;;;;;;;;;;;;;7.24;100.00;95811.31;1025447;28;19926;-67
2022/04/14 01:35:02;;;;;;;;;;;;;;;7.24;100.00;95806.09;1022816;29;19949;-68
2022/04/14 01:35:32;;;;;;;;;;;;;;;7.25;100.00;95810.28;1019066;29;19926;-68
2022/04/14 01:36:03;;;;;;;;;;;;;;;7.23;100.00;95814.13;1022743;28;20404;-65
2022/04/14 01:36:34;;;;;;;;;;;;;;;7.19;100.00;95813.81;1019550;28;19919;-68
2022/04/14 01:37:04;;;;;;;;;;;;;;;7.15;100.00;95812.72;1018109;29;19918;-67
2022/04/14 01:37:35;;;;;;;;;;;;;;;7.09;100.00;95808.47;1022398;29;19914;-65
2022/04/14 01:38:06;;;;;;;;;;;;;;;7.07;100.00;95807.91;1014887;29;19915;-66
2022/04/14 01:38:38;;;;;;;;;;;;;;;7.05;100.00;95812.59;1019194;28;20689;-68
2022/04/14 01:39:10;;;;;;;;;;;;;;;7.01;100.00;95816.69;1022719;29;19925;-66
2022/04/14 01:39:40;;;;;;;;;;;;;;;6.97;100.00;95810.34;1018608;29;19926;-67
2022/04/14 01:40:11;;;;;;;;;;;;;;;6.94;100.00;95810.81;1011108;29;20022;-66
2022/04/14 01:40:41;;;;;;;;;;;;;;;6.93;100.00;95809.25;1011220;29;19927;-67
2022/04/14 01:41:12;;;;;;;;;;;;;;;6.91;100.00;95806.06;1015065;29;19919;-67
2022/04/14 01:41:42;;;;;;;;;;;;;;;6.89;100.00;95813.38;1022909;29;19922;-66
2022/04/14 01:42:12;;;;;;;;;;;;;;;6.89;100.00;95808.16;1022888;29;20631;-65
2022/04/14 01:42:43;;;;;;;;;;;;;;;6.90;100.00;95810.50;1013960;29;19975;-66
2022/04/14 01:43:13;;;;;;;;;;;;;;;6.91;100.00;95806.06;1011105;29;20426;-66
2022/04/14 01:43:43;;;;;;;;;;;;;;;6.91;100.00;95808.69;1015039;29;19926;-66
2022/04/14 01:44:14;;;;;;;;;;;;;;;6.92;100.00;95805.84;1018887;29;19919;-67
2022/04/14 01:44:44;;;;;;;;;;;;;;;6.90;100.00;95807.91;1029950;28;19926;-65
2022/04/14 01:45:17;;;;;;;;;;;;;;;6.91;100.00;95806.06;1026684;28;20433;-66
2022/04/14 01:45:50;;;;;;;;;;;;;;;6.95;100.00;95807.22;1027004;28;19921;-66
2022/04/14 01:46:21;;;;;;;;;;;;;;;6.97;100.00;95807.75;1026685;28;19929;-65
2022/04/14 01:46:51;;;;;;;;;;;;;;;6.97;100.00;95807.75;1026897;28;20376;-68
2022/04/14 01:47:21;;;;;;;;;;;;;;;7.01;100.00;95811.47;1023378;28;19918;-65
2022/04/14 01:47:52;;;;;;;;;;;;;;;7.00;100.00;95810.66;1022995;28;19934;-68
2022/04/14 01:48:22;;;;;;;;;;;;;;;6.98;100.00;95804.13;1018864;29;19966;-66
2022/04/14 01:48:52;;;;;;;;;;;;;;;6.98;100.00;95809.34;1015082;29;19915;-68
2022/04/14 01:49:22;;;;;;;;;;;;;;;6.97;100.00;95805.13;1014877;29;19938;-66
2022/04/14 01:49:55;;;;;;;;;;;;;;;6.95;100.00;95808.00;1018646;29;20293;-66
2022/04/14 01:50:26;;;;;;;;;;;;;;;6.99;100.00;95813.53;1018750;29;19911;-66
2022/04/14 01:50:56;;;;;;;;;;;;;;;7.02;100.00;95808.63;1018854;29;19919;-67
2022/04/14 01:51:29;;;;;;;;;;;;;;;7.01;100.00;95807.06;1016403;29;19919;-68
2022/04/14 01:52:00;;;;;;;;;;;;;;;6.99;100.00;95803.09;1020520;28;19915;-66
2022/04/14 01:52:30;;;;;;;;;;;;;;;7.05;100.00;95810.75;1022845;29;19910;-68
2022/04/14 01:53:00;;;;;;;;;;;;;;;7.07;100.00;95811.28;1022638;28;19921;-66
2022/04/14 01:53:31;;;;;;;;;;;;;;;7.06;100.00;95809.72;1017588;28;20160;-66
2022/04/14 01:54:01;;;;;;;;;;;;;;;7.04;100.00;95813.59;1019567;29;19919;-66
2022/04/14 01:54:31;;;;;;;;;;;;;;;7.02;100.00;95807.84;1018324;29;19981;-64
2022/04/14 01:55:02;;;;;;;;;;;;;;;7.00;100.00;95809.88;1010305;29;20015;-66
2022/04/14 01:55:33;;;;;;;;;;;;;;;6.98;100.00;95809.34;1015796;29;20271;-66
2022/04/14 01:56:03;;;;;;;;;;;;;;;6.95;100.00;95802.78;1019399;29;19919;-66
2022/04/14 01:56:33;;;;;;;;;;;;;;;6.92;100.00;95807.69;1023050;28;19954;-66
2022/04/14 01:57:04;;;;;;;;;;;;;;;6.91;100.00;95808.69;1026510;28;19918;-66
2022/04/14 01:57:37;;;;;;;;;;;;;;;6.94;100.00;95806.44;1026968;28;19925;-67
2022/04/14 01:58:07;;;;;;;;;;;;;;;6.92;100.00;95807.69;1031382;28;19952;-64
2022/04/14 01:58:37;;;;;;;;;;;;;;;6.91;100.00;95811.28;1030916;28;19968;-65
2022/04/14 01:59:08;;;;;;;;;;;;;;;6.90;100.00;95812.34;1027288;28;19921;-66
2022/04/14 01:59:39;;;;;;;;;;;;;;;6.90;100.00;95818.34;1027433;28;19910;-65
2022/04/14 02:00:09;;;;;;;;;;;;;;;6.85;100.00;95819.06;1023361;29;19917;-64
2022/04/14 02:00:40;;;;;;;;;;;;;;;6.90;100.00;95815.72;1015708;29;19947;-66
2022/04/14 02:01:11;;;;;;;;;;;;;;;6.88;100.00;95823.00;1023397;29;19922;-63
2022/04/14 02:01:42;;;;;;;;;;;;;;;6.89;100.00;95815.97;1019636;29;19918;-65
2022/04/14 02:02:12;;;;;;;;;;;;;;;6.91;100.00;95821.72;1023655;28;19969;-63
2022/04/14 02:02:42;;;;;;;;;;;;;;;6.97;100.00;95820.78;1027662;28;19919;-65
2022/04/14 02:03:12;;;;;;;;;;;;;;;6.89;100.00;95824.59;1031273;28;19914;-67
2022/04/14 02:03:43;;;;;;;;;;;;;;;6.91;100.00;95816.50;1027675;28;19918;-65
2022/04/14 02:04:13;;;;;;;;;;;;;;;6.89;100.00;95813.38;1027253;28;19918;-66
2022/04/14 02:04:46;;;;;;;;;;;;;;;6.99;100.00;95821.34;1023457;29;19934;-64
2022/04/14 02:05:16;;;;;;;;;;;;;;;7.06;100.00;95824.59;1023223;28;20557;-66
2022/04/14 02:05:46;;;;;;;;;;;;;;;7.14;100.00;95820.78;1023505;29;19968;-68
2022/04/14 02:06:19;;;;;;;;;;;;;;;7.18;100.00;95820.09;1019970;29;19974;-64
2022/04/14 02:06:50;;;;;;;;;;;;;;;7.27;100.00;95826.47;1023169;28;20883;-64
2022/04/14 02:07:20;;;;;;;;;;;;;;;7.32;100.00;95818.72;1022463;28;19914;-65
2022/04/14 02:07:50;;;;;;;;;;;;;;;7.35;100.00;95821.88;1019705;29;19919;-68
2022/04/14 02:08:21;;;;;;;;;;;;;;;7.41;100.00;95820.91;1023109;28;19958;-67
2022/04/14 02:08:51;;;;;;;;;;;;;;;7.54;100.00;95825.78;1019223;29;19915;-63
2022/04/14 02:09:21;;;;;;;;;;;;;;;7.54;100.00;95821.38;1023581;29;19927;-64
2022/04/14 02:09:52;;;;;;;;;;;;;;;7.52;100.00;95827.88;1023366;29;20352;-64
2022/04/14 02:10:22;;;;;;;;;;;;;;;7.51;100.00;95831.50;1023649;28;19926;-65
2022/04/14 02:10:52;;;;;;;;;;;;;;;7.46;100.00;95826.22;1031431;28;19921;-65
2022/04/14 02:11:23;;;;;;;;;;;;;;;7.46;100.00;95834.03;1031392;28;19942;-65
2022/04/14 02:11:53;;;;;;;;;;;;;;;7.50;100.00;95824.69;1027418;28;19922;-65
2022/04/14 02:12:24;;;;;;;;;;;;;;;7.59;100.00;95833.72;1031169;28;19924;-66
2022/04/14 02:12:54;;;;;;;;;;;;;;;7.68;100.00;95824.44;1023270;29;19907;-66
2022/04/14 02:13:25;;;;;;;;;;;;;;;7.69;100.00;95828.63;1015711;29;20286;-68
2022/04/14 02:13:55;;;;;;;;;;;;;;;7.67;100.00;95827.28;1015213;29;19915;-65
2022/04/14 02:14:25;;;;;;;;;;;;;;;7.79;100.00;95825.34;1015577;29;20397;-66
2022/04/14 02:14:56;;;;;;;;;;;;;;;7.77;100.00;95825.56;1019151;29;19922;-65
2022/04/14 02:15:26;;;;;;;;;;;;;;;7.71;100.00;95821.34;1019120;29;19921;-63
2022/04/14 02:15:56;;;;;;;;;;;;;;;7.83;100.00;95829.03;1017926;28;20436;-66
2022/04/14 02:16:26;;;;;;;;;;;;;;;7.72;100.00;95820.31;1022407;29;20384;-66
2022/04/14 02:16:57;;;;;;;;;;;;;;;7.72;100.00;95825.53;1022589;28;19918;-66
2022/04/14 02:17:30;;;;;;;;;;;;;;;7.68;100.00;95829.66;1028355;28;19918;-65
2022/04/14 02:18:00;;;;;;;;;;;;;;;7.68;100.00;95827.03;1027958;28;19915;-66
2022/04/14 02:18:31;;;;;;;;;;;;;;;7.79;100.00;95827.97;1027893;28;20300;-64
2022/04/14 02:19:01;;;;;;;;;;;;;;;7.85;100.00;95823.59;1024040;29;19965;-65
2022/04/14 02:19:31;;;;;;;;;;;;;;;7.73;100.00;95814.03;1020150;29;19970;-63
2022/04/14 02:20:02;;;;;;;;;;;;;;;7.71;100.00;95821.34;1024298;28;19918;-66
2022/04/14 02:20:32;;;;;;;;;;;;;;;7.66;100.00;95823.88;1027930;28;20384;-64
2022/04/14 02:21:02;;;;;;;;;;;;;;;7.69;100.00;95827.81;1032091;28;19952;-66
2022/04/14 02:21:33;;;;;;;;;;;;;;;7.69;100.00;95827.81;1036325;28;20327;-66
2022/04/14 02:22:03;;;;;;;;;;;;;;;7.66;100.00;95825.69;1036277;28;19917;-64
2022/04/14 02:22:37;;;;;;;;;;;;;;;7.61;100.00;95825.63;1035597;28;19928;-65
2022/04/14 02:23:07;;;;;;;;;;;;;;;7.55;100.00;95825.56;1028098;28;19925;-67
2022/04/14 02:23:37;;;;;;;;;;;;;;;7.61;100.00;95826.41;1029176;28;19910;-65
2022/04/14 02:24:08;;;;;;;;;;;;;;;7.70;100.00;95822.34;1032189;28;20383;-66
2022/04/14 02:24:38;;;;;;;;;;;;;;;7.69;100.00;95826.00;1032040;28;19921;-66
2022/04/14 02:25:08;;;;;;;;;;;;;;;7.68;100.00;95824.44;1032119;28;19914;-65
2022/04/14 02:25:39;;;;;;;;;;;;;;;7.63;100.00;95823.56;1028168;28;19990;-66
2022/04/14 02:26:09;;;;;;;;;;;;;;;7.59;100.00;95823.25;1024113;28;19922;-67
2022/04/14 02:26:39;;;;;;;;;;;;;;;7.53;100.00;95819.78;1027847;28;19918;-65
2022/04/14 02:27:10;;;;;;;;;;;;;;;7.57;100.00;95830.53;1023729;29;19929;-65
2022/04/14 02:27:44;;;;;;;;;;;;;;;7.53;100.00;95826.81;1025239;28;19926;-66
2022/04/14 02:28:14;;;;;;;;;;;;;;;7.55;100.00;95827.38;1028181;28;19930;-66
2022/04/14 02:28:45;;;;;;;;;;;;;;;7.58;100.00;95824.31;1028153;28;19973;-66
2022/04/14 02:29:18;;;;;;;;;;;;;;;7.58;100.00;95826.91;1029974;28;19961;-66
2022/04/14 02:29:48;;;;;;;;;;;;;;;7.68;100.00;95829.66;1032723;28;20048;-66
2022/04/14 02:30:19;;;;;;;;;;;;;;;7.64;100.00;95827.75;1032094;28;20379;-66
2022/04/14 02:30:49;;;;;;;;;;;;;;;7.59;100.00;95822.47;1028137;28;19918;-65
2022/04/14 02:31:22;;;;;;;;;;;;;;;7.55;100.00;95827.38;1028004;28;19980;-67
2022/04/14 02:31:55;;;;;;;;;;;;;;;7.54;100.00;95825.78;1024289;28;19950;-64
2022/04/14 02:32:25;;;;;;;;;;;;;;;7.12;100.00;95766.25;1029083;28;20016;-65
2022/04/14 02:32:56;;;;;;;;;;;;;;;7.44;100.00;95823.81;1031987;28;19914;-66
2022/04/14 02:33:26;;;;;;;;;;;;;;;7.42;100.00;95819.91;1024397;28;20381;-66
2022/04/14 02:33:57;;;;;;;;;;;;;;;7.37;100.00;95819.81;1028275;28;19922;-65
2022/04/14 02:34:27;;;;;;;;;;;;;;;7.35;100.00;95819.28;1027958;28;19918;-66
2022/04/14 02:34:57;;;;;;;;;;;;;;;7.33;100.00;95820.28;1028193;28;19922;-66
2022/04/14 02:35:27;;;;;;;;;;;;;;;7.32;100.00;95823.94;1023944;28;20478;-66
2022/04/14 02:35:58;;;;;;;;;;;;;;;7.31;100.00;95821.59;1019905;29;19980;-66
2022/04/14 02:36:28;;;;;;;;;;;;;;;7.28;100.00;95822.06;1024319;28;19906;-67
2022/04/14 02:36:58;;;;;;;;;;;;;;;7.25;100.00;95817.31;1019356;29;20001;-64
2022/04/14 02:37:29;;;;;;;;;;;;;;;7.25;100.00;95822.53;1019884;29;19934;-65
2022/04/14 02:37:59;;;;;;;;;;;;;;;7.23;100.00;95817.53;1012459;29;19920;-65
2022/04/14 02:38:32;;;;;;;;;;;;;;;7.14;100.00;95811.13;1016201;29;19919;-64
2022/04/14 02:39:02;;;;;;;;;;;;;;;7.16;100.00;95819.53;1020660;29;19927;-65
2022/04/14 02:39:33;;;;;;;;;;;;;;;7.13;100.00;95819.22;1024074;28;19919;-66
2022/04/14 02:40:04;;;;;;;;;;;;;;;7.10;100.00;95823.09;1028328;28;20303;-65
2022/04/14 02:40:34;;;;;;;;;;;;;;;7.06;100.00;95817.53;1032187;28;19921;-66
2022/04/14 02:41:05;;;;;;;;;;;;;;;7.05;100.00;95817.78;1031873;28;19910;-65